Terminal Aerodrome Forecast
Issued by NWS

Home | Current Version | Previous Version | Graphics & Text | Print | Product List | Glossary On
Versions: 1 2 3 4 5 6 7 8 9 10 11 12 13 14 15 16 17 18 19 20
000
FTUS43 KGRB 160500
TAFRHI
TAF
KRHI 160520Z 1606/1706 13005KT P6SM BKN100
     FM161000 13008G14KT P6SM -SN SCT025 OVC040
     FM161300 12013G23KT 1 1/2SM -SN SCT006 OVC015
      TEMPO 1614/1618 1/2SM SN BKN006
     FM161800 10012G21KT 2SM -SN BKN012
     FM170200 10012G18KT 3/4SM -SN BKN006=

USA.gov is the U.S. government's official web portal to all federal, state and local government web resources and services.